createdAt,value
2023-01-10T00:02:26.485Z,100327.94
2023-01-10T00:04:56.154Z,100330.72
2023-01-10T00:07:28.439Z,100339.09
2023-01-10T00:09:58.047Z,100346.56
2023-01-10T00:12:40.195Z,100348.66
2023-01-10T00:15:11.097Z,100351.88
2023-01-10T00:17:40.731Z,100354.81
2023-01-10T00:20:12.108Z,100346.16
2023-01-10T00:22:44.336Z,100369.22
2023-01-10T00:25:14.047Z,100375.88
2023-01-10T00:27:43.771Z,100384.09
2023-01-10T00:30:16.427Z,100382.47
2023-01-10T00:32:47.633Z,100383.75
2023-01-10T00:35:17.307Z,100392.19
2023-01-10T00:37:49.525Z,100405.25
2023-01-10T00:40:19.630Z,100420.63
2023-01-10T00:43:01.863Z,100413.72
2023-01-10T00:45:31.755Z,100421.28
2023-01-10T00:48:01.364Z,100421.97
2023-01-10T00:50:31.078Z,100434.78
2023-01-10T00:53:03.754Z,100434.09
2023-01-10T00:55:33.563Z,100437.38
2023-01-10T00:58:03.184Z,100429.66
2023-01-10T01:00:32.885Z,100426.25
2023-01-10T01:03:02.950Z,100434.19
2023-01-10T01:05:32.571Z,100444.97
2023-01-10T01:08:04.781Z,100427.91
2023-01-10T01:10:34.397Z,100474.06
2023-01-10T01:13:13.091Z,100480.63
2023-01-10T01:15:43.070Z,100465.97
2023-01-10T01:18:14.751Z,100491.78
2023-01-10T01:20:45.879Z,100468.50
2023-01-10T01:23:18.573Z,100480.28
2023-01-10T01:25:48.246Z,100506.03
2023-01-10T01:28:18.037Z,100515.56
2023-01-10T01:30:47.672Z,100506.72
2023-01-10T01:33:17.772Z,100528.75
2023-01-10T01:35:48.333Z,100517.59
2023-01-10T01:38:21.147Z,100522.41
2023-01-10T01:40:50.828Z,100536.06
2023-01-10T01:43:28.924Z,100541.91
2023-01-10T01:46:01.185Z,100549.72
2023-01-10T01:48:39.270Z,100566.81
2023-01-10T01:51:13.269Z,100557.28
2023-01-10T01:53:49.147Z,100551.13
2023-01-10T01:56:21.541Z,100572.44
2023-01-10T01:58:54.338Z,100567.19
2023-01-10T02:01:25.266Z,100590.53
2023-01-10T02:03:59.682Z,100603.25
2023-01-10T02:06:29.595Z,100602.19
2023-01-10T02:09:10.749Z,100590.47
2023-01-10T02:11:40.447Z,100602.91
2023-01-10T02:14:13.315Z,100622.59
2023-01-10T02:16:43.149Z,100613.06
2023-01-10T02:19:25.224Z,100625.09
2023-01-10T02:22:26.058Z,100621.44
2023-01-10T02:25:25.923Z,100605.75
2023-01-10T02:28:20.555Z,100591.06
2023-01-10T02:31:06.517Z,100618.16
2023-01-10T02:33:43.195Z,100628.88
2023-01-10T02:36:37.752Z,100635.69
2023-01-10T02:39:15.102Z,100636.31
2023-01-10T02:41:50.474Z,100654.25
2023-01-10T02:44:24.306Z,100658.66
2023-01-10T02:46:54.565Z,100665.53
2023-01-10T02:49:26.831Z,100657.06
2023-01-10T02:51:56.618Z,100665.47
2023-01-10T02:54:30.755Z,100638.66
2023-01-10T02:57:22.377Z,100669.09
2023-01-10T03:00:26.108Z,100668.69
2023-01-10T03:03:27.587Z,100674.47
2023-01-10T03:06:14.219Z,100638.94
2023-01-10T03:08:49.321Z,100674.63
2023-01-10T03:11:39.281Z,100650.41
2023-01-10T03:14:14.402Z,100671.63
2023-01-10T03:16:46.987Z,100686.22
2023-01-10T03:19:20.449Z,100669.91
2023-01-10T03:21:57.054Z,100690.72
2023-01-10T03:24:31.491Z,100695.56
2023-01-10T03:27:08.366Z,100694.63
2023-01-10T03:29:46.067Z,100716.41
2023-01-10T03:32:17.949Z,100719.31
2023-01-10T03:34:48.213Z,100685.88
2023-01-10T03:37:32.778Z,100705.13
2023-01-10T03:40:10.904Z,100706.56
2023-01-10T03:43:02.796Z,100727.56
2023-01-10T03:45:38.490Z,100739.91
2023-01-10T03:48:11.334Z,100728.72
2023-01-10T03:50:42.331Z,100729.56
2023-01-10T03:53:15.857Z,100743.88
2023-01-10T03:55:48.038Z,100744.97
2023-01-10T03:58:21.833Z,100749.09
2023-01-10T04:00:51.556Z,100752.50
2023-01-10T04:03:21.315Z,100758.66
2023-01-10T04:05:50.939Z,100761.94
2023-01-10T04:08:23.152Z,100770.41
2023-01-10T04:10:52.895Z,100770.16
2023-01-10T04:13:22.569Z,100750.63
2023-01-10T04:15:52.214Z,100784.50
2023-01-10T04:18:22.012Z,100786.88
2023-01-10T04:20:52.357Z,100779.44
2023-01-10T04:23:24.700Z,100781.50
2023-01-10T04:25:54.335Z,100799.47
2023-01-10T04:28:24.754Z,100793.53
2023-01-10T04:30:54.533Z,100788.25
2023-01-10T04:33:24.291Z,100809.38
2023-01-10T04:35:55.033Z,100814.78
2023-01-10T04:38:27.295Z,100809.50
2023-01-10T04:40:57.966Z,100816.97
2023-01-10T04:43:28.283Z,100824.88
2023-01-10T04:45:58.036Z,100828.22
2023-01-10T04:48:27.833Z,100815.25
2023-01-10T04:50:57.728Z,100835.16
2023-01-10T04:53:29.973Z,100846.53
2023-01-10T04:56:05.395Z,100854.13
2023-01-10T04:58:36.106Z,100840.72
2023-01-10T05:01:11.298Z,100850.00
2023-01-10T05:03:41.115Z,100847.66
2023-01-10T05:06:11.258Z,100820.34
2023-01-10T05:08:43.563Z,100862.31
2023-01-10T05:11:13.690Z,100854.31
2023-01-10T05:13:43.657Z,100855.97
2023-01-10T05:16:13.360Z,100861.00
2023-01-10T05:18:43.025Z,100856.81
2023-01-10T05:21:15.464Z,100865.81
2023-01-10T05:23:47.732Z,100870.34
2023-01-10T05:26:21.728Z,100882.00
2023-01-10T05:28:51.459Z,100881.22
2023-01-10T05:31:22.768Z,100873.06
2023-01-10T05:33:54.237Z,100879.97
2023-01-10T05:36:24.358Z,100904.59
2023-01-10T05:38:56.639Z,100904.59
2023-01-10T05:41:26.343Z,100902.97
2023-01-10T05:43:56.030Z,100923.00
2023-01-10T05:46:25.697Z,100899.50
2023-01-10T05:48:55.495Z,100904.34
2023-01-10T05:51:25.295Z,100898.28
2023-01-10T05:53:58.651Z,100930.63
2023-01-10T05:56:29.266Z,100936.38
2023-01-10T05:59:17.217Z,100942.28
2023-01-10T06:01:50.717Z,100943.91
2023-01-10T06:04:22.525Z,100949.50
2023-01-10T06:06:52.349Z,100955.91
2023-01-10T06:09:24.629Z,100946.38
2023-01-10T06:11:57.638Z,100963.66
2023-01-10T06:14:27.306Z,100953.00
2023-01-10T06:16:58.029Z,100952.03
2023-01-10T06:19:27.740Z,100954.00
2023-01-10T06:21:59.694Z,100945.06
2023-01-10T06:24:32.057Z,100978.56
2023-01-10T06:27:01.758Z,100975.53
2023-01-10T06:29:32.580Z,100968.31
2023-01-10T06:32:05.503Z,100990.13
2023-01-10T06:34:35.220Z,100995.03
2023-01-10T06:37:09.563Z,100969.59
2023-01-10T06:39:42.334Z,100990.78
2023-01-10T06:42:12.020Z,100996.03
2023-01-10T06:44:41.724Z,101004.97
2023-01-10T06:47:12.513Z,100984.97
2023-01-10T06:49:42.177Z,101022.66
2023-01-10T06:52:15.582Z,100990.13
2023-01-10T06:54:49.211Z,101020.59
2023-01-10T06:57:19.098Z,101011.25
2023-01-10T06:59:50.887Z,101022.69
2023-01-10T07:02:20.598Z,101031.50
2023-01-10T07:04:51.660Z,101025.19
2023-01-10T07:07:21.592Z,101028.63
2023-01-10T07:09:53.919Z,101030.84
2023-01-10T07:12:23.663Z,101027.91
2023-01-10T07:14:53.397Z,101045.09
2023-01-10T07:17:23.285Z,101044.63
2023-01-10T07:19:59.369Z,101058.69
2023-01-10T07:22:29.123Z,101044.41
2023-01-10T07:25:05.194Z,101033.69
2023-01-10T07:27:35.531Z,101044.88
2023-01-10T07:30:05.364Z,101059.44
2023-01-10T07:32:36.918Z,101035.34
2023-01-10T07:35:08.355Z,101050.94
2023-01-10T07:37:41.588Z,101052.84
2023-01-10T07:40:15.330Z,101066.97
2023-01-10T07:42:48.595Z,101082.75
2023-01-10T07:45:18.402Z,101077.50
2023-01-10T07:47:48.145Z,101077.94
2023-01-10T07:50:18.994Z,101068.16
2023-01-10T07:52:49.675Z,101083.06
2023-01-10T07:55:25.532Z,101089.59
2023-01-10T07:57:55.249Z,101089.47
2023-01-10T08:00:25.777Z,101100.47
2023-01-10T08:02:57.577Z,101100.09
2023-01-10T08:05:29.495Z,101047.47
2023-01-10T08:08:00.496Z,101103.38
2023-01-10T08:10:33.766Z,101116.25
2023-01-10T08:13:16.921Z,101113.03
2023-01-10T08:15:50.491Z,101118.97
2023-01-10T08:18:25.404Z,101129.03
2023-01-10T08:20:59.186Z,101096.31
2023-01-10T08:23:29.634Z,101095.72
2023-01-10T08:26:04.307Z,101097.97
2023-01-10T08:28:37.714Z,101076.22
2023-01-10T08:31:09.682Z,101100.78
2023-01-10T08:33:43.390Z,101098.94
2023-01-10T08:36:20.611Z,101068.94
2023-01-10T08:38:53.636Z,101107.81
2023-01-10T08:41:26.019Z,101031.56
2023-01-10T08:43:55.713Z,101099.50
2023-01-10T08:46:28.650Z,101130.09
2023-01-10T08:48:58.391Z,101121.00
2023-01-10T08:51:28.105Z,101126.63
2023-01-10T08:54:04.351Z,101143.19
2023-01-10T08:56:37.421Z,101147.03
2023-01-10T08:59:09.262Z,101136.25
2023-01-10T09:01:39.161Z,101157.38
2023-01-10T09:04:08.966Z,101157.06
2023-01-10T09:06:39.140Z,101134.66
2023-01-10T09:09:12.633Z,101126.91
2023-01-10T09:11:48.300Z,101152.88
2023-01-10T09:14:18.588Z,101149.75
2023-01-10T09:16:51.700Z,101175.13
2023-01-10T09:19:24.641Z,101163.53
2023-01-10T09:21:57.578Z,101164.47
2023-01-10T09:24:27.395Z,101171.88
2023-01-10T09:27:00.728Z,101177.66
2023-01-10T09:29:30.428Z,101175.00
2023-01-10T09:32:00.118Z,101177.44
2023-01-10T09:34:31.968Z,101191.50
2023-01-10T09:37:01.770Z,101127.44
2023-01-10T09:39:32.415Z,101179.50
2023-01-10T09:42:31.476Z,101170.22
2023-01-10T09:45:09.021Z,101193.03
2023-01-10T09:47:48.280Z,101192.91
2023-01-10T09:50:24.459Z,101153.22
2023-01-10T09:52:58.283Z,101170.56
2023-01-10T09:55:38.417Z,101194.38
2023-01-10T09:58:16.757Z,101177.22
2023-01-10T10:00:51.716Z,101189.44
2023-01-10T10:03:29.429Z,101195.19
2023-01-10T10:06:11.293Z,101206.22
2023-01-10T10:08:42.734Z,101184.28
2023-01-10T10:11:34.147Z,101168.56
2023-01-10T10:14:11.791Z,101205.88
2023-01-10T10:17:07.948Z,101223.84
2023-01-10T10:19:54.059Z,101210.00
2023-01-10T10:22:36.007Z,101193.31
2023-01-10T10:25:15.791Z,101223.22
2023-01-10T10:28:02.025Z,101219.53
2023-01-10T10:30:43.505Z,101209.72
2023-01-10T10:33:31.890Z,101206.22
2023-01-10T10:36:07.598Z,101215.59
2023-01-10T10:38:42.603Z,101202.78
2023-01-10T10:41:20.703Z,101203.19
2023-01-10T10:43:55.790Z,101197.56
2023-01-10T10:46:29.459Z,101194.63
2023-01-10T10:49:01.983Z,101215.59
2023-01-10T10:51:41.672Z,101213.19
2023-01-10T10:54:16.610Z,101217.84
2023-01-10T10:56:47.316Z,101224.66
2023-01-10T10:59:22.062Z,101210.91
2023-01-10T11:01:54.534Z,101184.09
2023-01-10T11:04:27.485Z,101216.31
2023-01-10T11:06:58.175Z,101226.53
2023-01-10T11:09:32.603Z,101218.66
2023-01-10T11:12:02.279Z,101219.91
2023-01-10T11:14:46.874Z,101186.81
2023-01-10T11:17:27.111Z,101198.72
2023-01-10T11:20:02.056Z,101203.75
2023-01-10T11:22:36.499Z,101219.91
2023-01-10T11:25:06.647Z,101230.75
2023-01-10T11:27:50.409Z,101201.16
2023-01-10T11:30:26.898Z,101207.41
2023-01-10T11:33:03.405Z,101212.88
2023-01-10T11:35:37.182Z,101217.94
2023-01-10T11:38:09.345Z,101219.13
2023-01-10T11:40:41.134Z,101205.81
2023-01-10T11:43:28.132Z,101193.56
2023-01-10T11:46:05.141Z,101203.28
2023-01-10T11:49:05.503Z,101116.97
2023-01-10T11:51:38.352Z,101193.44
2023-01-10T11:54:12.995Z,101203.28
2023-01-10T11:56:43.829Z,101203.50
2023-01-10T11:59:20.130Z,101206.56
2023-01-10T12:01:59.094Z,101205.63
2023-01-10T12:04:37.138Z,101186.00
2023-01-10T12:07:12.146Z,101183.94
2023-01-10T12:09:44.275Z,101151.94
2023-01-10T12:12:21.619Z,101159.38
2023-01-10T12:14:52.535Z,101192.38
2023-01-10T12:17:27.802Z,101148.97
2023-01-10T12:20:03.119Z,101169.06
2023-01-10T12:22:37.207Z,101183.53
2023-01-10T12:25:18.003Z,101189.59
2023-01-10T12:27:53.059Z,101179.97
2023-01-10T12:30:31.624Z,101200.84
2023-01-10T12:33:09.558Z,101156.72
2023-01-10T12:35:50.465Z,101191.34
2023-01-10T12:38:42.621Z,101180.47
2023-01-10T12:41:37.627Z,101189.63
2023-01-10T12:44:16.042Z,101181.38
2023-01-10T12:47:09.202Z,101166.34
2023-01-10T12:49:47.562Z,101186.03
2023-01-10T12:52:27.238Z,101175.38
2023-01-10T12:54:56.976Z,101174.13
2023-01-10T12:57:33.737Z,101180.25
2023-01-10T13:00:06.514Z,101175.63
2023-01-10T13:02:44.137Z,101164.28
2023-01-10T13:05:22.336Z,101188.09
2023-01-10T13:07:58.533Z,101186.25
2023-01-10T13:10:29.331Z,101160.13
2023-01-10T13:13:07.223Z,101174.16
2023-01-10T13:15:41.632Z,101168.84
2023-01-10T13:18:21.324Z,101184.91
2023-01-10T13:20:51.135Z,101166.22
2023-01-10T13:23:35.752Z,101181.81
2023-01-10T13:26:09.322Z,101166.59
2023-01-10T13:28:40.912Z,101170.50
2023-01-10T13:31:26.002Z,101180.09
2023-01-10T13:34:03.140Z,101173.03
2023-01-10T13:36:40.250Z,101176.00
2023-01-10T13:39:25.273Z,101159.88
2023-01-10T13:42:26.982Z,101156.59
2023-01-10T13:45:22.715Z,101145.38
2023-01-10T13:48:04.223Z,101158.47
2023-01-10T13:50:54.746Z,101154.91
2023-01-10T13:53:55.571Z,101154.03
2023-01-10T13:56:37.018Z,101148.78
2023-01-10T13:59:21.047Z,101152.78
2023-01-10T14:02:08.322Z,101146.22
2023-01-10T14:04:41.857Z,101142.97
2023-01-10T14:07:24.607Z,101149.78
2023-01-10T14:10:04.819Z,101103.88
2023-01-10T14:12:41.820Z,101128.03
2023-01-10T14:15:27.236Z,101134.13
2023-01-10T14:18:02.051Z,101140.69
2023-01-10T14:20:33.935Z,101117.53
2023-01-10T14:23:08.201Z,101129.09
2023-01-10T14:25:42.308Z,101116.03
2023-01-10T14:28:25.376Z,101134.88
2023-01-10T14:31:05.332Z,101124.88
2023-01-10T14:33:36.753Z,101088.56
2023-01-10T14:36:12.819Z,101136.25
2023-01-10T14:38:47.970Z,101107.88
2023-01-10T14:41:25.066Z,101123.13
2023-01-10T14:44:04.047Z,101113.25
2023-01-10T14:46:42.664Z,101094.75
2023-01-10T14:49:24.082Z,101127.00
2023-01-10T14:52:00.735Z,101113.63
2023-01-10T14:54:32.015Z,101104.84
2023-01-10T14:57:01.814Z,101124.47
2023-01-10T14:59:38.026Z,101116.84
2023-01-10T15:02:18.898Z,101118.16
2023-01-10T15:04:55.625Z,101120.94
2023-01-10T15:07:28.659Z,101115.94
2023-01-10T15:10:02.864Z,101119.38
2023-01-10T15:12:36.106Z,101117.03
2023-01-10T15:15:18.997Z,101095.06
2023-01-10T15:17:49.360Z,101109.72
2023-01-10T15:20:21.840Z,101102.41
2023-01-10T15:22:59.232Z,101101.16
2023-01-10T15:25:38.108Z,101103.69
2023-01-10T15:28:15.630Z,101083.84
2023-01-10T15:30:48.637Z,101061.78
2023-01-10T15:33:22.287Z,101084.97
2023-01-10T15:35:52.031Z,101091.91
2023-01-10T15:38:27.362Z,101067.50
2023-01-10T15:41:01.981Z,101068.75
2023-01-10T15:43:34.802Z,101047.69
2023-01-10T15:46:19.932Z,101041.41
2023-01-10T15:48:59.557Z,101059.50
2023-01-10T15:51:31.416Z,101048.94
2023-01-10T15:54:07.244Z,101041.50
2023-01-10T15:56:39.101Z,101049.09
2023-01-10T15:59:25.167Z,101046.16
2023-01-10T16:02:07.689Z,101041.66
2023-01-10T16:04:38.482Z,101039.19
2023-01-10T16:07:14.926Z,101028.31
2023-01-10T16:09:50.728Z,101030.03
2023-01-10T16:12:48.541Z,101032.38
2023-01-10T16:15:24.633Z,101019.75
2023-01-10T16:17:57.568Z,101028.28
2023-01-10T16:20:31.202Z,101023.47
2023-01-10T16:23:01.715Z,101012.75
2023-01-10T16:25:35.207Z,101012.34
2023-01-10T16:28:05.247Z,101009.38
2023-01-10T16:30:40.535Z,101001.66
2023-01-10T16:33:17.622Z,100980.81
2023-01-10T16:35:48.253Z,100960.38
2023-01-10T16:38:18.528Z,100991.63
2023-01-10T16:40:52.553Z,100985.09
2023-01-10T16:43:21.398Z,100960.69
2023-01-10T16:45:53.190Z,100936.16
2023-01-10T16:48:25.726Z,100969.00
2023-01-10T16:50:56.577Z,100971.38
2023-01-10T16:53:30.711Z,100981.75
2023-01-10T16:56:00.400Z,100961.97
2023-01-10T16:58:30.160Z,100959.13
2023-01-10T17:01:01.361Z,100960.94
2023-01-10T17:03:38.314Z,100953.78
2023-01-10T17:06:08.537Z,100950.94
2023-01-10T17:08:40.345Z,100921.53
2023-01-10T17:11:17.690Z,100937.69
2023-01-10T17:13:48.583Z,100929.97
2023-01-10T17:16:19.730Z,100925.94
2023-01-10T17:18:53.284Z,100925.94
2023-01-10T17:21:25.086Z,100922.69
2023-01-10T17:23:54.764Z,100910.84
2023-01-10T17:26:27.671Z,100872.88
2023-01-10T17:29:00.641Z,100884.47
2023-01-10T17:31:33.677Z,100915.56
2023-01-10T17:34:08.055Z,100905.16
2023-01-10T17:36:39.619Z,100913.47
2023-01-10T17:39:09.807Z,100891.63
2023-01-10T17:41:39.552Z,100912.59
2023-01-10T17:44:10.431Z,100915.69
2023-01-10T17:46:40.103Z,100905.31
2023-01-10T17:49:13.468Z,100909.91
2023-01-10T17:51:43.314Z,100899.28
2023-01-10T17:54:15.155Z,100898.16
2023-01-10T17:56:45.017Z,100889.75
2023-01-10T17:59:14.672Z,100896.31
2023-01-10T18:01:45.687Z,100894.81
2023-01-10T18:04:17.988Z,100878.09
2023-01-10T18:06:47.872Z,100886.16
2023-01-10T18:09:17.535Z,100877.50
2023-01-10T18:11:47.650Z,100884.53
2023-01-10T18:14:29.866Z,100870.81
2023-01-10T18:16:59.597Z,100863.91
2023-01-10T18:19:32.526Z,100870.94
2023-01-10T18:22:02.263Z,100862.25
2023-01-10T18:24:31.958Z,100852.00
2023-01-10T18:27:01.721Z,100783.28
2023-01-10T18:29:31.356Z,100875.66
2023-01-10T18:32:01.098Z,100864.00
2023-01-10T18:34:33.415Z,100849.03
2023-01-10T18:37:03.082Z,100772.44
2023-01-10T18:39:32.963Z,100840.81
2023-01-10T18:42:02.656Z,100857.97
2023-01-10T18:44:32.277Z,100850.53
2023-01-10T18:47:02.049Z,100838.06
2023-01-10T18:49:34.558Z,100852.91
2023-01-10T18:52:04.197Z,100836.25
2023-01-10T18:54:33.907Z,100832.22
2023-01-10T18:57:03.689Z,100816.81
2023-01-10T18:59:35.430Z,100808.19
2023-01-10T19:02:05.156Z,100826.91
2023-01-10T19:04:37.516Z,100830.53
2023-01-10T19:07:07.181Z,100807.66
2023-01-10T19:09:38.845Z,100767.66
2023-01-10T19:12:09.969Z,100814.63
2023-01-10T19:14:39.609Z,100803.22
2023-01-10T19:17:10.340Z,100810.53
2023-01-10T19:19:47.214Z,100803.69
2023-01-10T19:22:18.682Z,100788.34
2023-01-10T19:24:48.443Z,100792.19
2023-01-10T19:27:18.426Z,100780.22
2023-01-10T19:29:50.146Z,100766.13
2023-01-10T19:32:19.991Z,100762.34
2023-01-10T19:34:52.452Z,100757.97
2023-01-10T19:37:22.184Z,100753.69
2023-01-10T19:39:51.840Z,100753.47
2023-01-10T19:42:21.546Z,100756.25
2023-01-10T19:44:51.378Z,100739.38
2023-01-10T19:47:23.110Z,100739.75
2023-01-10T19:49:55.668Z,100734.44
2023-01-10T19:52:25.553Z,100709.25
2023-01-10T19:54:55.305Z,100730.25
2023-01-10T19:57:25.079Z,100725.25
2023-01-10T19:59:58.061Z,100717.88
2023-01-10T20:02:30.023Z,100706.69
2023-01-10T20:05:02.499Z,100687.78
2023-01-10T20:07:32.311Z,100693.72
2023-01-10T20:10:06.008Z,100695.22
2023-01-10T20:12:35.721Z,100638.38
2023-01-10T20:15:05.488Z,100669.53
2023-01-10T20:17:35.598Z,100658.94
2023-01-10T20:20:11.030Z,100657.22
2023-01-10T20:22:41.716Z,100660.78
2023-01-10T20:25:11.925Z,100632.53
2023-01-10T20:27:41.693Z,100662.53
2023-01-10T20:30:14.091Z,100640.47
2023-01-10T20:32:43.985Z,100585.19
2023-01-10T20:35:16.267Z,100628.66
2023-01-10T20:37:46.060Z,100604.91
2023-01-10T20:40:17.522Z,100623.13
2023-01-10T20:42:52.487Z,100616.06
2023-01-10T20:45:22.384Z,100587.28
2023-01-10T20:47:56.494Z,100578.41
2023-01-10T20:50:30.831Z,100585.50
2023-01-10T20:53:00.589Z,100575.16
2023-01-10T20:55:36.851Z,100584.56
2023-01-10T20:58:09.751Z,100532.13
2023-01-10T21:00:41.612Z,100522.22
2023-01-10T21:03:11.331Z,100533.53
2023-01-10T21:05:43.623Z,100579.75
2023-01-10T21:08:13.269Z,100571.16
2023-01-10T21:10:48.744Z,100548.47
2023-01-10T21:13:18.540Z,100545.00
2023-01-10T21:15:51.096Z,100540.09
2023-01-10T21:18:33.124Z,100559.88
2023-01-10T21:21:06.747Z,100495.78
2023-01-10T21:23:36.433Z,100531.53
2023-01-10T21:26:08.595Z,100532.91
2023-01-10T21:28:42.394Z,100484.00
2023-01-10T21:31:14.932Z,100490.97
2023-01-10T21:33:44.794Z,100519.41
2023-01-10T21:36:21.331Z,100516.97
2023-01-10T21:38:52.725Z,100481.91
2023-01-10T21:41:42.870Z,100498.75
2023-01-10T21:44:13.544Z,100486.69
2023-01-10T21:46:44.723Z,100464.56
2023-01-10T21:49:14.920Z,100467.44
2023-01-10T21:51:53.150Z,100485.06
2023-01-10T21:54:25.220Z,100464.63
2023-01-10T21:56:58.713Z,100426.53
2023-01-10T21:59:28.391Z,100479.97
2023-01-10T22:01:58.165Z,100383.78
2023-01-10T22:04:27.847Z,100450.91
2023-01-10T22:07:00.178Z,100455.44
2023-01-10T22:09:30.928Z,100471.38
2023-01-10T22:12:00.580Z,100473.22
2023-01-10T22:14:30.322Z,100441.53
2023-01-10T22:16:59.946Z,100457.84
2023-01-10T22:19:29.535Z,100492.47
2023-01-10T22:22:01.849Z,100476.94
2023-01-10T22:24:32.566Z,100480.19
2023-01-10T22:27:02.425Z,100488.63
2023-01-10T22:29:32.060Z,100472.09
2023-01-10T22:32:01.760Z,100431.25
2023-01-10T22:34:31.378Z,100475.94
2023-01-10T22:37:03.628Z,100473.41
2023-01-10T22:39:33.589Z,100470.78
2023-01-10T22:42:03.229Z,100478.19
2023-01-10T22:44:32.985Z,100472.91
2023-01-10T22:47:02.633Z,100462.88
2023-01-10T22:49:32.294Z,100472.09
2023-01-10T22:52:08.366Z,100455.06
2023-01-10T22:54:38.007Z,100454.22
2023-01-10T22:57:07.675Z,100445.75
2023-01-10T22:59:37.351Z,100459.34
2023-01-10T23:02:07.054Z,100449.34
2023-01-10T23:04:36.677Z,100461.59
2023-01-10T23:07:08.911Z,100461.38
2023-01-10T23:09:38.575Z,100444.53
2023-01-10T23:12:09.118Z,100426.50
2023-01-10T23:14:38.768Z,100417.03
2023-01-10T23:17:08.432Z,100450.59
2023-01-10T23:19:38.202Z,100422.34
2023-01-10T23:22:10.452Z,100429.97
2023-01-10T23:24:40.085Z,100420.13
2023-01-10T23:27:09.729Z,100406.00
2023-01-10T23:29:39.365Z,100389.72
2023-01-10T23:32:09.088Z,100407.22
2023-01-10T23:34:39.077Z,100409.59
2023-01-10T23:37:11.342Z,100405.56
2023-01-10T23:39:41.075Z,100385.59
2023-01-10T23:42:11.694Z,100343.56
2023-01-10T23:44:41.475Z,100402.81
2023-01-10T23:47:11.139Z,100397.66
2023-01-10T23:49:40.819Z,100385.28
2023-01-10T23:52:14.926Z,100380.03
2023-01-10T23:54:44.618Z,100367.22
2023-01-10T23:57:14.344Z,100372.53
2023-01-10T23:59:44.012Z,100393.28
